Time;durP1;ratioP1;P1;durP2;ratioP2;P2;SDS_P1;SDS_P2;PMS_P1;PMS_P2;Temp;Humidity;BMP_temperature;BMP_pressure;BME280_temperature;BME280_humidity;BME280_pressure;Samples;Min_cycle;Max_cycle;Signal;HPM_P1;HPM_P2
2023/10/20 00:02:19;;;;;;;41.40;22.05;;;;;;;;;;5052751;28;20024;-71
2023/10/20 00:04:44;;;;;;;40.77;22.00;;;;;;;;;;5052909;28;20103;-71
2023/10/20 00:07:09;;;;;;;40.10;21.97;;;;;;;;;;5034977;28;20356;-71
2023/10/20 00:09:35;;;;;;;42.40;21.63;;;;;;;;;;5052704;28;20032;-71
2023/10/20 00:12:00;;;;;;;43.30;22.50;;;;;;;;;;5055021;28;20177;-71
2023/10/20 00:14:25;;;;;;;49.08;23.05;;;;;;;;;;5056558;28;20258;-71
2023/10/20 00:16:51;;;;;;;47.23;22.30;;;;;;;;;;5056491;28;20021;-71
2023/10/20 00:19:18;;;;;;;39.13;21.10;;;;;;;;;;5056496;28;20066;-71
2023/10/20 00:21:45;;;;;;;44.63;21.75;;;;;;;;;;5056357;28;20027;-71
2023/10/20 00:24:10;;;;;;;39.30;20.83;;;;;;;;;;5056423;28;20375;-71
2023/10/20 00:26:35;;;;;;;44.33;21.83;;;;;;;;;;5056260;28;20025;-70
2023/10/20 00:29:00;;;;;;;42.93;20.97;;;;;;;;;;5056245;28;20079;-70
2023/10/20 00:31:25;;;;;;;44.28;21.50;;;;;;;;;;5056227;28;20775;-70
2023/10/20 00:33:51;;;;;;;38.13;20.60;;;;;;;;;;5056231;28;20017;-70
2023/10/20 00:36:17;;;;;;;39.53;20.88;;;;;;;;;;5056127;28;20167;-70
2023/10/20 00:38:42;;;;;;;43.45;20.13;;;;;;;;;;5056128;28;20021;-71
2023/10/20 00:41:08;;;;;;;43.92;20.45;;;;;;;;;;5056044;28;20017;-70
2023/10/20 00:43:37;;;;;;;41.75;21.02;;;;;;;;;;5056250;28;20104;-71
2023/10/20 00:46:04;;;;;;;39.90;20.92;;;;;;;;;;5055900;28;20465;-70
2023/10/20 00:48:30;;;;;;;39.60;20.60;;;;;;;;;;5055926;28;20017;-71
2023/10/20 00:50:56;;;;;;;37.95;20.33;;;;;;;;;;5055819;28;20024;-70
2023/10/20 00:53:23;;;;;;;38.75;20.58;;;;;;;;;;5055844;28;20017;-70
2023/10/20 00:55:48;;;;;;;38.80;20.45;;;;;;;;;;5055652;28;20013;-70
2023/10/20 00:58:13;;;;;;;43.85;20.73;;;;;;;;;;5037837;28;20024;-71
2023/10/20 01:00:39;;;;;;;41.13;20.40;;;;;;;;;;5055773;28;20025;-70
2023/10/20 01:03:04;;;;;;;43.20;20.60;;;;;;;;;;5055639;28;20086;-70
2023/10/20 01:05:29;;;;;;;39.55;19.90;;;;;;;;;;5055627;28;20080;-70
2023/10/20 01:07:55;;;;;;;35.60;19.73;;;;;;;;;;5055393;28;20083;-70
2023/10/20 01:10:20;;;;;;;44.83;20.37;;;;;;;;;;5055637;28;20266;-70
2023/10/20 01:12:45;;;;;;;38.72;19.88;;;;;;;;;;5055310;28;20307;-70
2023/10/20 01:15:13;;;;;;;39.23;20.97;;;;;;;;;;5055514;28;20024;-71
2023/10/20 01:17:39;;;;;;;37.75;19.60;;;;;;;;;;5055249;28;20259;-70
2023/10/20 01:20:06;;;;;;;40.03;20.05;;;;;;;;;;5055306;28;20472;-70
2023/10/20 01:22:31;;;;;;;38.33;20.55;;;;;;;;;;5054181;28;20017;-71
2023/10/20 01:24:57;;;;;;;38.65;21.35;;;;;;;;;;5055121;28;20021;-70
2023/10/20 01:27:22;;;;;;;38.03;19.90;;;;;;;;;;5055199;28;20060;-71
2023/10/20 01:29:47;;;;;;;42.27;21.30;;;;;;;;;;5055127;28;20084;-70
2023/10/20 01:32:12;;;;;;;38.97;20.80;;;;;;;;;;5055021;28;20025;-71
2023/10/20 01:34:37;;;;;;;39.42;20.75;;;;;;;;;;5055212;28;20409;-70
2023/10/20 01:37:03;;;;;;;42.40;20.88;;;;;;;;;;5055094;28;20406;-71
2023/10/20 01:39:29;;;;;;;43.87;21.03;;;;;;;;;;5055088;28;20099;-72
2023/10/20 01:41:54;;;;;;;41.72;20.45;;;;;;;;;;5055028;28;20346;-71
2023/10/20 01:44:19;;;;;;;40.25;20.30;;;;;;;;;;5054910;28;20063;-71
2023/10/20 01:46:49;;;;;;;37.67;19.63;;;;;;;;;;5036955;28;20024;-71
2023/10/20 01:49:14;;;;;;;37.22;19.67;;;;;;;;;;5054957;28;20066;-72
2023/10/20 01:51:39;;;;;;;42.10;20.02;;;;;;;;;;5054729;28;20025;-71
2023/10/20 01:54:06;;;;;;;35.30;19.03;;;;;;;;;;5054627;28;20028;-71
2023/10/20 01:56:31;;;;;;;36.65;18.80;;;;;;;;;;5054677;28;20024;-70
2023/10/20 01:58:56;;;;;;;38.30;20.17;;;;;;;;;;5054503;28;20031;-70
2023/10/20 02:01:22;;;;;;;37.28;19.40;;;;;;;;;;5054490;28;20618;-70
2023/10/20 02:03:49;;;;;;;38.83;20.20;;;;;;;;;;5054629;28;20075;-70
2023/10/20 02:06:14;;;;;;;36.28;20.08;;;;;;;;;;5054515;28;20025;-70
2023/10/20 02:08:40;;;;;;;33.33;18.83;;;;;;;;;;5054367;28;20469;-70
2023/10/20 02:11:05;;;;;;;37.30;19.47;;;;;;;;;;5054225;28;20309;-70
2023/10/20 02:13:30;;;;;;;37.93;20.17;;;;;;;;;;5054143;28;20449;-70
2023/10/20 02:15:55;;;;;;;34.77;19.00;;;;;;;;;;5054242;28;20029;-71
2023/10/20 02:18:20;;;;;;;42.88;19.95;;;;;;;;;;5054125;28;20060;-71
2023/10/20 02:20:55;;;;;;;41.47;20.03;;;;;;;;;;5054059;28;20027;-70
2023/10/20 02:23:20;;;;;;;34.13;18.73;;;;;;;;;;5054205;28;20260;-70
2023/10/20 02:25:45;;;;;;;42.00;19.80;;;;;;;;;;5054175;28;20024;-71
2023/10/20 02:28:10;;;;;;;36.93;18.40;;;;;;;;;;5054043;28;20025;-71
2023/10/20 02:30:35;;;;;;;37.00;18.43;;;;;;;;;;5053896;28;20365;-71
2023/10/20 02:33:02;;;;;;;36.97;18.93;;;;;;;;;;5053823;28;20378;-71
2023/10/20 02:35:27;;;;;;;39.83;19.77;;;;;;;;;;5053583;28;20263;-71
2023/10/20 02:37:52;;;;;;;39.30;20.17;;;;;;;;;;5053858;28;20021;-71
2023/10/20 02:40:18;;;;;;;36.67;19.23;;;;;;;;;;5053995;28;20808;-71
2023/10/20 02:42:44;;;;;;;37.50;19.67;;;;;;;;;;5053643;28;20037;-71
2023/10/20 02:45:10;;;;;;;36.92;18.90;;;;;;;;;;5035947;28;20071;-71
2023/10/20 02:47:36;;;;;;;36.22;18.55;;;;;;;;;;5053524;28;20017;-70
2023/10/20 02:50:01;;;;;;;39.50;18.80;;;;;;;;;;5053578;28;20021;-70
2023/10/20 02:52:26;;;;;;;36.53;18.77;;;;;;;;;;5053474;28;20013;-70
2023/10/20 02:54:55;;;;;;;40.35;19.10;;;;;;;;;;5053364;28;20017;-70
2023/10/20 02:57:23;;;;;;;42.15;18.95;;;;;;;;;;5053573;28;20044;-70
2023/10/20 02:59:49;;;;;;;38.40;18.52;;;;;;;;;;5053645;28;20024;-71
2023/10/20 03:02:18;;;;;;;39.53;19.70;;;;;;;;;;5053430;28;20033;-71
2023/10/20 03:04:43;;;;;;;40.20;18.70;;;;;;;;;;5053434;28;20537;-71
2023/10/20 03:07:08;;;;;;;39.33;18.60;;;;;;;;;;5053471;28;20141;-71
2023/10/20 03:09:34;;;;;;;42.30;19.48;;;;;;;;;;5053215;28;20384;-71
2023/10/20 03:11:59;;;;;;;44.65;19.75;;;;;;;;;;5053219;28;20072;-71
2023/10/20 03:14:24;;;;;;;39.60;18.83;;;;;;;;;;5053399;28;20017;-71
2023/10/20 03:16:49;;;;;;;36.07;18.13;;;;;;;;;;5053276;28;20371;-71
2023/10/20 03:19:14;;;;;;;35.10;18.07;;;;;;;;;;5053447;28;20021;-71
2023/10/20 03:21:39;;;;;;;39.60;18.75;;;;;;;;;;5035292;28;20310;-71
2023/10/20 03:24:05;;;;;;;34.33;17.75;;;;;;;;;;5053223;28;20035;-71
2023/10/20 03:26:30;;;;;;;35.00;17.48;;;;;;;;;;5053017;28;20086;-71
2023/10/20 03:28:56;;;;;;;37.45;17.65;;;;;;;;;;5053080;28;20437;-71
2023/10/20 03:31:22;;;;;;;34.27;17.63;;;;;;;;;;5035305;28;20053;-71
2023/10/20 03:33:48;;;;;;;38.17;17.45;;;;;;;;;;5051773;28;20017;-71
2023/10/20 03:36:13;;;;;;;32.92;17.08;;;;;;;;;;5051114;28;20009;-70
2023/10/20 03:38:38;;;;;;;38.65;18.52;;;;;;;;;;5051161;28;20083;-71
2023/10/20 03:41:05;;;;;;;37.28;17.85;;;;;;;;;;5051538;28;20036;-71
2023/10/20 03:43:31;;;;;;;35.75;18.50;;;;;;;;;;5051623;28;20032;-70
2023/10/20 03:45:56;;;;;;;36.60;17.63;;;;;;;;;;5052243;28;20017;-69
2023/10/20 03:48:23;;;;;;;37.00;18.50;;;;;;;;;;5055385;28;20513;-70
2023/10/20 03:50:49;;;;;;;36.05;17.65;;;;;;;;;;5056895;28;20036;-71
2023/10/20 03:53:27;;;;;;;39.50;17.33;;;;;;;;;;5056959;28;20027;-70
2023/10/20 03:56:05;;;;;;;35.85;17.10;;;;;;;;;;5056347;28;20047;-71
2023/10/20 03:58:30;;;;;;;35.70;17.23;;;;;;;;;;5055121;28;20017;-71
2023/10/20 04:01:03;;;;;;;34.15;18.27;;;;;;;;;;5054956;28;20029;-70
2023/10/20 04:03:30;;;;;;;35.13;17.73;;;;;;;;;;5055085;28;20492;-70
2023/10/20 04:05:55;;;;;;;32.80;17.58;;;;;;;;;;5054979;28;20098;-70
2023/10/20 04:08:21;;;;;;;33.83;16.73;;;;;;;;;;5054935;28;20072;-70
2023/10/20 04:10:46;;;;;;;40.00;18.58;;;;;;;;;;5055174;28;20032;-71
2023/10/20 04:13:12;;;;;;;36.83;18.77;;;;;;;;;;5056456;28;20092;-71
2023/10/20 04:15:37;;;;;;;37.97;18.77;;;;;;;;;;5056570;28;20096;-71
2023/10/20 04:18:04;;;;;;;36.53;18.50;;;;;;;;;;5056569;28;20079;-71
2023/10/20 04:20:29;;;;;;;41.10;18.90;;;;;;;;;;5056627;28;20472;-71
2023/10/20 04:22:55;;;;;;;40.00;18.85;;;;;;;;;;5056397;28;20029;-71
2023/10/20 04:25:21;;;;;;;35.33;17.42;;;;;;;;;;5056360;28;20051;-71
2023/10/20 04:28:01;;;;;;;38.38;18.55;;;;;;;;;;5056258;28;20441;-72
2023/10/20 04:44:58;;;;;;;38.28;17.85;;;;;;;;;;5056066;28;20028;-71
2023/10/20 05:02:44;;;;;;;35.17;17.48;;;;;;;;;;5056029;28;20302;-71
2023/10/20 05:05:27;;;;;;;39.20;17.90;;;;;;;;;;5055710;28;20021;-71
2023/10/20 05:07:58;;;;;;;35.38;16.40;;;;;;;;;;5055577;28;20021;-71
2023/10/20 05:10:24;;;;;;;34.13;16.75;;;;;;;;;;5037580;28;20013;-71
2023/10/20 05:12:49;;;;;;;30.27;16.55;;;;;;;;;;5055528;28;20095;-71
2023/10/20 05:15:14;;;;;;;36.83;17.52;;;;;;;;;;5055465;28;20021;-71
2023/10/20 05:17:39;;;;;;;39.22;17.33;;;;;;;;;;5055360;28;20017;-71
2023/10/20 05:20:05;;;;;;;36.88;17.50;;;;;;;;;;5055492;28;20037;-71
2023/10/20 05:22:31;;;;;;;33.65;17.15;;;;;;;;;;5054917;28;20167;-71
2023/10/20 05:24:56;;;;;;;33.88;16.10;;;;;;;;;;5055470;28;20060;-71
2023/10/20 05:27:21;;;;;;;35.97;15.93;;;;;;;;;;5037260;28;20021;-71
2023/10/20 05:29:46;;;;;;;36.10;16.80;;;;;;;;;;5055200;28;20338;-71
2023/10/20 05:32:12;;;;;;;35.43;17.63;;;;;;;;;;5055117;28;20263;-71
2023/10/20 05:34:37;;;;;;;32.07;16.13;;;;;;;;;;5037154;28;20260;-71
2023/10/20 05:37:02;;;;;;;32.97;15.77;;;;;;;;;;5055021;28;20342;-71
2023/10/20 05:39:27;;;;;;;32.25;15.95;;;;;;;;;;5055096;28;20329;-71
2023/10/20 05:41:53;;;;;;;35.55;17.15;;;;;;;;;;5055042;28;20365;-70
2023/10/20 05:44:22;;;;;;;37.83;16.35;;;;;;;;;;5054898;28;20384;-71
2023/10/20 05:46:47;;;;;;;33.05;15.55;;;;;;;;;;5054729;28;20020;-70
2023/10/20 05:49:12;;;;;;;30.85;15.48;;;;;;;;;;5054882;28;20024;-71
2023/10/20 05:51:37;;;;;;;32.00;15.17;;;;;;;;;;5054796;28;20020;-71
2023/10/20 05:54:03;;;;;;;28.80;13.93;;;;;;;;;;5054752;28;20722;-71
2023/10/20 05:56:28;;;;;;;31.60;14.70;;;;;;;;;;5054644;28;20264;-71
2023/10/20 05:58:54;;;;;;;32.10;15.25;;;;;;;;;;5054688;28;20040;-70
2023/10/20 06:01:19;;;;;;;30.57;13.97;;;;;;;;;;5054646;28;20040;-70
2023/10/20 06:03:44;;;;;;;33.38;14.48;;;;;;;;;;5054658;28;20025;-71
2023/10/20 06:06:10;;;;;;;29.03;13.47;;;;;;;;;;5054472;28;20025;-70
2023/10/20 06:08:35;;;;;;;30.52;14.73;;;;;;;;;;5054041;28;20353;-70
2023/10/20 06:11:02;;;;;;;31.55;14.45;;;;;;;;;;5054424;28;20025;-70
2023/10/20 06:13:27;;;;;;;26.77;14.15;;;;;;;;;;5054227;28;20013;-70
2023/10/20 06:15:53;;;;;;;26.90;13.80;;;;;;;;;;5054255;28;20017;-70
2023/10/20 06:18:18;;;;;;;30.48;13.32;;;;;;;;;;5054322;28;20384;-71
2023/10/20 06:20:43;;;;;;;27.80;13.47;;;;;;;;;;5054410;28;20052;-70
2023/10/20 06:23:08;;;;;;;24.70;12.45;;;;;;;;;;5054162;28;20796;-70
2023/10/20 06:25:35;;;;;;;29.80;13.05;;;;;;;;;;5054203;28;20103;-70
2023/10/20 06:28:00;;;;;;;25.40;12.65;;;;;;;;;;5053919;28;20021;-71
2023/10/20 06:30:25;;;;;;;27.90;12.65;;;;;;;;;;5053970;28;20485;-70
2023/10/20 06:32:56;;;;;;;26.60;12.70;;;;;;;;;;5054013;28;20482;-70
2023/10/20 06:35:23;;;;;;;25.85;12.15;;;;;;;;;;5054052;28;20262;-71
2023/10/20 06:40:16;;;;;;;25.15;12.10;;;;;;;;;;5054270;28;20035;-70
2023/10/20 06:42:44;;;;;;;27.57;12.83;;;;;;;;;;5036352;28;20451;-70
2023/10/20 06:45:12;;;;;;;28.00;11.88;;;;;;;;;;5053861;28;20269;-70
2023/10/20 06:47:40;;;;;;;24.60;12.15;;;;;;;;;;5053943;28;20488;-70
2023/10/20 06:50:07;;;;;;;25.30;12.98;;;;;;;;;;5054141;28;20013;-70
2023/10/20 06:52:35;;;;;;;28.60;12.52;;;;;;;;;;5054177;28;20460;-70
2023/10/20 06:55:00;;;;;;;28.27;12.23;;;;;;;;;;5054467;28;20017;-70
2023/10/20 06:57:26;;;;;;;22.40;11.80;;;;;;;;;;5054200;28;20134;-70
2023/10/20 06:59:51;;;;;;;26.95;12.13;;;;;;;;;;5054486;28;20268;-71
2023/10/20 07:02:16;;;;;;;22.40;11.25;;;;;;;;;;5054319;28;20495;-69
2023/10/20 07:04:42;;;;;;;26.57;12.23;;;;;;;;;;5054621;28;20025;-70
2023/10/20 07:07:12;;;;;;;23.98;11.02;;;;;;;;;;5053829;28;20696;-70
2023/10/20 07:09:37;;;;;;;27.38;11.90;;;;;;;;;;5054259;28;20017;-70
2023/10/20 07:12:03;;;;;;;25.98;12.05;;;;;;;;;;5054299;28;20052;-69
2023/10/20 07:14:28;;;;;;;22.80;11.88;;;;;;;;;;5054221;28;20051;-70
2023/10/20 07:16:53;;;;;;;27.20;12.05;;;;;;;;;;5067693;28;20040;-69
2023/10/20 07:19:18;;;;;;;26.37;11.73;;;;;;;;;;5070845;28;20061;-71
2023/10/20 07:21:44;;;;;;;25.87;12.43;;;;;;;;;;5071816;28;20427;-70
2023/10/20 07:24:09;;;;;;;28.00;12.02;;;;;;;;;;5071707;28;20262;-69
2023/10/20 07:26:34;;;;;;;26.33;12.35;;;;;;;;;;5073318;28;20013;-70
2023/10/20 07:28:59;;;;;;;22.48;10.95;;;;;;;;;;5073474;28;20088;-70
2023/10/20 07:31:26;;;;;;;23.77;11.03;;;;;;;;;;5074975;28;20084;-70
2023/10/20 07:33:51;;;;;;;23.55;11.20;;;;;;;;;;5057931;28;20291;-70
2023/10/20 07:36:16;;;;;;;21.37;10.33;;;;;;;;;;5074871;28;20029;-70
2023/10/20 07:38:42;;;;;;;25.50;10.93;;;;;;;;;;5076143;28;20263;-71
2023/10/20 07:41:10;;;;;;;21.60;9.90;;;;;;;;;;5076990;28;20017;-71
2023/10/20 07:43:35;;;;;;;21.65;10.23;;;;;;;;;;5076479;28;20037;-71
2023/10/20 07:46:01;;;;;;;17.77;9.15;;;;;;;;;;5076958;28;20023;-69
2023/10/20 07:48:26;;;;;;;17.73;8.70;;;;;;;;;;5077109;28;20044;-69
2023/10/20 07:50:52;;;;;;;16.73;8.80;;;;;;;;;;5076977;28;20055;-70
2023/10/20 07:53:18;;;;;;;16.00;8.68;;;;;;;;;;5077018;28;20302;-71
2023/10/20 07:55:43;;;;;;;18.60;9.10;;;;;;;;;;5074794;28;20026;-71
2023/10/20 07:58:08;;;;;;;19.58;9.02;;;;;;;;;;5058823;28;20013;-70
2023/10/20 08:00:34;;;;;;;15.55;8.52;;;;;;;;;;5057409;28;20517;-70
2023/10/20 08:02:59;;;;;;;22.33;9.07;;;;;;;;;;5057665;28;20063;-70
2023/10/20 08:05:24;;;;;;;18.60;8.52;;;;;;;;;;5056295;28;20266;-70
2023/10/20 08:07:50;;;;;;;17.20;8.50;;;;;;;;;;5056258;28;20055;-71
2023/10/20 08:10:15;;;;;;;17.50;7.77;;;;;;;;;;5055037;28;20038;-70
2023/10/20 08:12:40;;;;;;;15.83;7.77;;;;;;;;;;5054600;28;20275;-70
2023/10/20 08:15:06;;;;;;;16.05;7.53;;;;;;;;;;5054587;28;20426;-71
2023/10/20 08:17:32;;;;;;;12.52;6.93;;;;;;;;;;5054140;28;20549;-71
2023/10/20 08:19:59;;;;;;;19.65;7.53;;;;;;;;;;5053887;28;20104;-70
2023/10/20 08:22:24;;;;;;;14.68;6.95;;;;;;;;;;5053866;28;20021;-71
2023/10/20 08:24:49;;;;;;;12.70;6.87;;;;;;;;;;5053869;28;20027;-71
2023/10/20 08:27:18;;;;;;;11.93;5.93;;;;;;;;;;5053423;28;20283;-71
2023/10/20 08:29:45;;;;;;;11.32;5.82;;;;;;;;;;5053132;28;20723;-70
2023/10/20 08:32:10;;;;;;;14.25;6.35;;;;;;;;;;5054648;28;20376;-71
2023/10/20 08:34:35;;;;;;;11.77;6.10;;;;;;;;;;5057294;28;20044;-70
2023/10/20 08:37:02;;;;;;;11.05;6.07;;;;;;;;;;5056797;28;20372;-71
2023/10/20 08:39:27;;;;;;;9.70;5.13;;;;;;;;;;5038559;28;20021;-71
2023/10/20 08:41:52;;;;;;;8.15;5.35;;;;;;;;;;5056496;28;20028;-71
2023/10/20 08:44:18;;;;;;;7.90;4.60;;;;;;;;;;5056404;28;20025;-71
2023/10/20 08:46:44;;;;;;;7.88;4.72;;;;;;;;;;5038555;28;20052;-70
2023/10/20 08:49:10;;;;;;;6.93;4.30;;;;;;;;;;5056131;28;20099;-70
2023/10/20 08:51:35;;;;;;;6.90;3.70;;;;;;;;;;5056457;28;20024;-70
2023/10/20 08:54:00;;;;;;;6.55;3.92;;;;;;;;;;5056516;28;20444;-70
2023/10/20 08:56:26;;;;;;;8.57;4.28;;;;;;;;;;5055807;28;20094;-69
2023/10/20 08:58:51;;;;;;;6.75;3.72;;;;;;;;;;5038447;28;20021;-70
2023/10/20 09:01:17;;;;;;;6.80;3.97;;;;;;;;;;5056135;28;20091;-70
2023/10/20 09:03:42;;;;;;;6.10;3.70;;;;;;;;;;5055683;28;20017;-69
2023/10/20 09:06:09;;;;;;;5.57;3.45;;;;;;;;;;5055694;28;20730;-70
2023/10/20 09:08:34;;;;;;;6.55;3.55;;;;;;;;;;5037584;28;20029;-70
2023/10/20 09:11:00;;;;;;;6.47;3.72;;;;;;;;;;5055615;28;20031;-70
2023/10/20 09:13:34;;;;;;;5.57;3.53;;;;;;;;;;5055327;28;20104;-69
2023/10/20 09:16:00;;;;;;;6.00;3.45;;;;;;;;;;5037348;28;20264;-70
2023/10/20 09:18:25;;;;;;;4.85;3.10;;;;;;;;;;5055644;28;20093;-70
2023/10/20 09:20:51;;;;;;;5.50;3.63;;;;;;;;;;5056095;28;20017;-70
2023/10/20 09:23:16;;;;;;;5.45;3.42;;;;;;;;;;5055526;28;20376;-70
2023/10/20 09:25:41;;;;;;;4.73;3.30;;;;;;;;;;5055736;28;20477;-70
2023/10/20 09:28:06;;;;;;;5.27;3.33;;;;;;;;;;5055540;28;20319;-70
2023/10/20 09:30:32;;;;;;;5.93;3.63;;;;;;;;;;5055622;28;20263;-70
2023/10/20 09:32:57;;;;;;;5.30;3.10;;;;;;;;;;5055627;28;20505;-70
2023/10/20 09:35:22;;;;;;;4.88;3.17;;;;;;;;;;5055665;28;20021;-71
2023/10/20 09:37:52;;;;;;;5.30;3.17;;;;;;;;;;5055730;28;20029;-71
2023/10/20 09:40:19;;;;;;;5.15;3.25;;;;;;;;;;5055022;28;20017;-71
2023/10/20 09:43:03;;;;;;;5.43;3.33;;;;;;;;;;5055516;28;20024;-71
2023/10/20 09:45:32;;;;;;;4.65;2.80;;;;;;;;;;5054920;28;20142;-71
2023/10/20 09:48:00;;;;;;;4.03;2.72;;;;;;;;;;5055167;28;20383;-71
2023/10/20 09:50:25;;;;;;;3.70;2.47;;;;;;;;;;5037634;28;20500;-71
2023/10/20 09:52:51;;;;;;;5.63;2.40;;;;;;;;;;5055556;28;20102;-70
2023/10/20 09:55:19;;;;;;;4.60;2.83;;;;;;;;;;5055117;28;20028;-69
2023/10/20 09:57:47;;;;;;;4.10;2.47;;;;;;;;;;5055405;28;20017;-71
2023/10/20 10:00:12;;;;;;;5.45;2.63;;;;;;;;;;5055100;28;20012;-70
2023/10/20 10:02:37;;;;;;;4.72;2.40;;;;;;;;;;5054982;28;20020;-70
2023/10/20 10:05:08;;;;;;;3.75;2.50;;;;;;;;;;5055322;28;20021;-69
2023/10/20 10:07:34;;;;;;;3.55;2.20;;;;;;;;;;5054875;28;20023;-69
2023/10/20 10:09:59;;;;;;;4.05;2.40;;;;;;;;;;5054729;28;20092;-70
2023/10/20 10:12:27;;;;;;;3.90;2.33;;;;;;;;;;5054843;28;20049;-70
2023/10/20 10:15:06;;;;;;;3.70;2.25;;;;;;;;;;5055048;28;20012;-70
2023/10/20 10:17:41;;;;;;;3.38;2.28;;;;;;;;;;5054880;28;20020;-70
2023/10/20 10:20:17;;;;;;;3.97;2.00;;;;;;;;;;5054180;28;20017;-70
2023/10/20 10:22:42;;;;;;;3.33;2.20;;;;;;;;;;5054317;28;20029;-70
2023/10/20 10:25:07;;;;;;;3.33;2.20;;;;;;;;;;5036647;28;20028;-69
2023/10/20 10:27:33;;;;;;;3.30;2.20;;;;;;;;;;5054319;28;20082;-70
2023/10/20 10:30:05;;;;;;;2.83;1.90;;;;;;;;;;5036253;28;20256;-70
2023/10/20 10:32:36;;;;;;;3.73;2.20;;;;;;;;;;5054371;28;20013;-71
2023/10/20 10:35:03;;;;;;;4.00;2.10;;;;;;;;;;5036664;28;20369;-71
2023/10/20 10:37:37;;;;;;;3.03;1.90;;;;;;;;;;5036416;28;20494;-71
2023/10/20 10:40:04;;;;;;;;;;;;;;;;;;5054717;28;20025;-71
2023/10/20 10:42:29;;;;;;;3.38;1.88;;;;;;;;;;5054234;28;19911;-71
2023/10/20 10:44:54;;;;;;;2.30;1.63;;;;;;;;;;5054066;28;20454;-71
2023/10/20 10:47:20;;;;;;;2.50;1.70;;;;;;;;;;5036218;28;20283;-72
2023/10/20 10:49:48;;;;;;;3.63;1.77;;;;;;;;;;5054249;28;20071;-72
2023/10/20 10:52:13;;;;;;;2.17;1.70;;;;;;;;;;5054453;28;20743;-71
2023/10/20 10:54:38;;;;;;;6.47;1.88;;;;;;;;;;5053579;28;20040;-72
2023/10/20 10:57:04;;;;;;;3.07;1.60;;;;;;;;;;5054072;28;20060;-71
2023/10/20 10:59:29;;;;;;;1.55;1.20;;;;;;;;;;5053925;28;20591;-71
2023/10/20 11:01:55;;;;;;;2.30;1.42;;;;;;;;;;5035763;28;20021;-71
2023/10/20 11:04:20;;;;;;;2.33;1.40;;;;;;;;;;5053855;28;20017;-71
2023/10/20 11:06:46;;;;;;;2.83;1.50;;;;;;;;;;5053599;28;20104;-71
2023/10/20 11:09:11;;;;;;;3.00;1.88;;;;;;;;;;5053961;28;20320;-70
2023/10/20 11:11:42;;;;;;;1.38;1.10;;;;;;;;;;5053919;28;20423;-71
2023/10/20 11:14:07;;;;;;;2.88;1.15;;;;;;;;;;5053816;28;20021;-71
2023/10/20 11:16:38;;;;;;;3.08;1.55;;;;;;;;;;5053835;28;20024;-70
2023/10/20 11:19:04;;;;;;;1.20;1.10;;;;;;;;;;5054071;28;20032;-70
2023/10/20 11:21:29;;;;;;;1.90;1.00;;;;;;;;;;5053866;28;20016;-71
2023/10/20 11:23:58;;;;;;;1.77;1.23;;;;;;;;;;5053539;28;20055;-71
2023/10/20 11:26:24;;;;;;;2.50;1.17;;;;;;;;;;5053550;28;20095;-71
2023/10/20 11:28:51;;;;;;;1.85;1.23;;;;;;;;;;5035909;28;20457;-71
2023/10/20 11:31:16;;;;;;;1.45;1.10;;;;;;;;;;5053432;28;20100;-70
2023/10/20 11:33:41;;;;;;;1.92;1.13;;;;;;;;;;5053439;28;20408;-70
2023/10/20 11:36:06;;;;;;;1.87;1.20;;;;;;;;;;5053751;28;20115;-70
2023/10/20 11:38:32;;;;;;;1.88;1.05;;;;;;;;;;5052827;28;20267;-70
2023/10/20 11:40:57;;;;;;;1.17;0.98;;;;;;;;;;5053485;28;20452;-71
2023/10/20 11:43:22;;;;;;;1.58;1.00;;;;;;;;;;5053861;28;20013;-70
2023/10/20 11:45:47;;;;;;;2.00;0.77;;;;;;;;;;5034979;28;20055;-70
2023/10/20 11:48:12;;;;;;;1.83;1.00;;;;;;;;;;5035692;28;20774;-71
2023/10/20 11:50:38;;;;;;;1.53;1.10;;;;;;;;;;5053506;28;20275;-71
2023/10/20 11:53:03;;;;;;;1.27;1.05;;;;;;;;;;5053087;28;20342;-70
2023/10/20 11:55:28;;;;;;;1.48;1.00;;;;;;;;;;5052089;28;20582;-70
2023/10/20 11:57:53;;;;;;;1.40;1.10;;;;;;;;;;5052008;28;20016;-70
2023/10/20 12:00:19;;;;;;;0.97;0.73;;;;;;;;;;5051896;28;20371;-71
2023/10/20 12:02:44;;;;;;;1.77;1.10;;;;;;;;;;5051629;28;20051;-70
2023/10/20 12:05:10;;;;;;;2.43;1.10;;;;;;;;;;5052910;28;20063;-71
2023/10/20 12:07:35;;;;;;;2.08;1.10;;;;;;;;;;5054304;28;20280;-70
2023/10/20 12:10:00;;;;;;;2.50;1.15;;;;;;;;;;5057494;28;20032;-71
2023/10/20 12:12:26;;;;;;;2.47;0.88;;;;;;;;;;5039086;28;20546;-71
2023/10/20 12:14:51;;;;;;;1.77;1.02;;;;;;;;;;5057407;28;20051;-71
2023/10/20 12:17:17;;;;;;;2.05;1.02;;;;;;;;;;5039389;28;20071;-71
2023/10/20 12:19:42;;;;;;;2.95;1.10;;;;;;;;;;5057150;28;20333;-71
2023/10/20 12:22:11;;;;;;;5.47;1.30;;;;;;;;;;5057138;28;20017;-71
2023/10/20 12:24:36;;;;;;;1.10;0.90;;;;;;;;;;5039198;28;20121;-70
2023/10/20 12:27:01;;;;;;;1.53;0.90;;;;;;;;;;5056736;28;20099;-70
2023/10/20 12:29:28;;;;;;;1.42;1.05;;;;;;;;;;5056856;28;20792;-70
2023/10/20 12:31:53;;;;;;;2.35;1.00;;;;;;;;;;5056969;28;20021;-71
2023/10/20 12:34:21;;;;;;;3.03;0.90;;;;;;;;;;5056932;28;20036;-70
2023/10/20 12:36:48;;;;;;;1.13;0.82;;;;;;;;;;5038892;28;20276;-71
2023/10/20 12:39:17;;;;;;;4.07;1.10;;;;;;;;;;5056544;28;20009;-72
2023/10/20 12:41:43;;;;;;;1.65;1.00;;;;;;;;;;5056540;28;20013;-71
2023/10/20 12:44:08;;;;;;;1.20;0.90;;;;;;;;;;5056617;28;20016;-72
2023/10/20 12:46:34;;;;;;;1.23;0.90;;;;;;;;;;5056488;28;20021;-72
2023/10/20 12:49:00;;;;;;;0.93;0.82;;;;;;;;;;5056539;28;20456;-72
2023/10/20 12:51:25;;;;;;;3.22;1.00;;;;;;;;;;5056216;28;20032;-71
2023/10/20 12:53:50;;;;;;;1.33;1.00;;;;;;;;;;5037527;28;20116;-72
2023/10/20 12:56:16;;;;;;;1.73;1.00;;;;;;;;;;5054817;28;20413;-71
2023/10/20 12:58:41;;;;;;;2.05;1.00;;;;;;;;;;5054368;28;20350;-71
2023/10/20 13:01:06;;;;;;;1.50;1.13;;;;;;;;;;5054542;28;20028;-69
2023/10/20 13:03:32;;;;;;;1.25;0.90;;;;;;;;;;5056014;28;20259;-72
2023/10/20 13:05:57;;;;;;;2.92;0.90;;;;;;;;;;5056199;28;20100;-71
2023/10/20 13:08:23;;;;;;;2.03;1.00;;;;;;;;;;5056245;28;20032;-71
2023/10/20 13:10:49;;;;;;;1.25;1.00;;;;;;;;;;5056219;28;20013;-71
2023/10/20 13:13:14;;;;;;;1.42;1.00;;;;;;;;;;5055993;28;20036;-71
2023/10/20 13:15:40;;;;;;;3.45;1.20;;;;;;;;;;5055842;28;20021;-70
2023/10/20 13:18:05;;;;;;;3.28;1.20;;;;;;;;;;5054965;28;20511;-70
2023/10/20 13:20:30;;;;;;;1.98;1.20;;;;;;;;;;5037780;28;20147;-72
2023/10/20 13:22:55;;;;;;;1.95;1.17;;;;;;;;;;5055753;28;20021;-71
2023/10/20 13:25:22;;;;;;;2.10;1.30;;;;;;;;;;5038060;28;20028;-71
2023/10/20 13:27:48;;;;;;;3.38;1.33;;;;;;;;;;5055609;28;20575;-71
2023/10/20 13:30:13;;;;;;;2.17;1.60;;;;;;;;;;5055854;28;20028;-72
2023/10/20 13:32:39;;;;;;;1.35;1.25;;;;;;;;;;5055913;28;20368;-72
2023/10/20 13:35:04;;;;;;;3.15;1.35;;;;;;;;;;5055863;28;20021;-73
2023/10/20 13:37:29;;;;;;;1.65;1.30;;;;;;;;;;5056349;28;20053;-72
2023/10/20 13:39:54;;;;;;;3.70;1.17;;;;;;;;;;5055725;28;20029;-71
2023/10/20 13:42:20;;;;;;;1.48;1.17;;;;;;;;;;5037993;28;20029;-72
2023/10/20 13:44:45;;;;;;;1.30;1.13;;;;;;;;;;5037744;28;20464;-72
2023/10/20 13:47:10;;;;;;;1.67;1.27;;;;;;;;;;5055476;28;20283;-72
2023/10/20 13:49:36;;;;;;;1.90;1.40;;;;;;;;;;5055399;28;20029;-71
2023/10/20 13:52:01;;;;;;;2.38;1.42;;;;;;;;;;5037479;28;20272;-71
2023/10/20 13:54:27;;;;;;;1.77;1.30;;;;;;;;;;5055294;28;20009;-72
2023/10/20 13:56:53;;;;;;;2.42;1.50;;;;;;;;;;5055296;28;20579;-72
2023/10/20 13:59:18;;;;;;;1.87;1.20;;;;;;;;;;5055083;28;20024;-71
2023/10/20 14:01:43;;;;;;;3.08;1.45;;;;;;;;;;5055162;28;20299;-71
2023/10/20 14:04:08;;;;;;;1.77;1.27;;;;;;;;;;5037227;28;20012;-70
2023/10/20 14:06:33;;;;;;;2.00;1.40;;;;;;;;;;5055435;28;20017;-70
2023/10/20 14:08:59;;;;;;;2.70;1.50;;;;;;;;;;5055315;28;20654;-70
2023/10/20 14:11:24;;;;;;;2.30;1.60;;;;;;;;;;5036982;28;20319;-70
2023/10/20 14:13:49;;;;;;;4.03;1.50;;;;;;;;;;5055112;28;20017;-69
2023/10/20 14:16:14;;;;;;;2.17;1.40;;;;;;;;;;5055019;28;20267;-70
2023/10/20 14:18:39;;;;;;;1.53;1.03;;;;;;;;;;5055047;28;20032;-70
2023/10/20 14:21:05;;;;;;;1.33;0.87;;;;;;;;;;5037229;28;20324;-71
2023/10/20 14:23:31;;;;;;;2.22;1.40;;;;;;;;;;5037023;28;20270;-71
2023/10/20 14:25:59;;;;;;;3.03;1.25;;;;;;;;;;5055061;28;20032;-72
2023/10/20 14:28:31;;;;;;;3.85;1.20;;;;;;;;;;5054540;28;20126;-70
2023/10/20 14:31:00;;;;;;;2.13;1.20;;;;;;;;;;5054168;28;20094;-70
2023/10/20 14:33:25;;;;;;;1.90;1.40;;;;;;;;;;5054599;28;20021;-70
2023/10/20 14:35:50;;;;;;;1.63;1.30;;;;;;;;;;5036546;28;20035;-71
2023/10/20 14:38:15;;;;;;;2.05;1.27;;;;;;;;;;5036625;28;20024;-71
2023/10/20 14:40:41;;;;;;;1.77;1.30;;;;;;;;;;5054655;28;20508;-71
2023/10/20 14:43:06;;;;;;;3.53;1.15;;;;;;;;;;5054494;28;20278;-70
2023/10/20 14:45:31;;;;;;;2.63;1.00;;;;;;;;;;5054473;28;20028;-71
2023/10/20 14:47:56;;;;;;;1.38;1.10;;;;;;;;;;5054242;28;20747;-70
2023/10/20 14:50:22;;;;;;;1.70;1.13;;;;;;;;;;5054305;28;20045;-69
2023/10/20 14:52:51;;;;;;;1.83;1.10;;;;;;;;;;5053977;28;20255;-72
2023/10/20 14:55:16;;;;;;;1.70;1.10;;;;;;;;;;5054140;28;20489;-70